South Paterson, New Jersey
Current Conditions -  °F | °C
As of 6:51 PM on Saturday 22 Nov 2014 (Local Time) from KTEB Reporting Station
Broken Clouds Broken Clouds  
Wind Chill:   Ceiling: 6500
Heat Index:   Visibility: 10mi
Dew Point: -8°   Wind: 14mph
Humidity: 37%   Direction: 220°SW
Pressure: 30.23"   Gusts: NA
Location:  40.8979°N, 74.1545°W
Report Text: KTEB 222351Z 22012KT 10SM FEW038 BKN065 06/M08 A3023 RMK AO2 SLP236 T00611078 10067 20050 56013
Loading
Personal Weather Stations






























Interactive Weather Map New forecast layout! Learn more

10-Day Weather Forecast

Advertisements
Track Severe Weather on mobile